Time;durP1;ratioP1;P1;durP2;ratioP2;P2;SDS_P1;SDS_P2;PMS_P1;PMS_P2;Temp;Humidity;BMP_temperature;BMP_pressure;BME280_temperature;BME280_humidity;BME280_pressure;Samples;Min_cycle;Max_cycle;Signal;HPM_P1;HPM_P2
2022/10/12 00:02:01;;;;;;;6.85;1.77;;;;;;;8.19;85.56;100380.25;1753432;79;21422;-60
2022/10/12 00:04:28;;;;;;;10.88;1.72;;;;;;;8.20;85.62;100374.59;1744440;79;20970;-61
2022/10/12 00:06:55;;;;;;;11.33;2.90;;;;;;;8.19;85.53;100373.74;1738276;81;21530;-61
2022/10/12 00:09:21;;;;;;;7.67;2.12;;;;;;;8.18;85.79;100377.25;1728126;82;20910;-61
2022/10/12 00:11:49;;;;;;;9.58;2.50;;;;;;;8.18;85.78;100381.16;1727438;82;22075;-60
2022/10/12 00:14:15;;;;;;;7.83;2.00;;;;;;;8.21;85.79;100381.52;1728421;82;21029;-60
2022/10/12 00:16:42;;;;;;;6.83;1.90;;;;;;;8.23;85.87;100387.09;1726274;82;20903;-60
2022/10/12 00:19:12;;;;;;;6.30;1.70;;;;;;;8.26;85.92;100396.11;1782937;79;20891;-60
2022/10/12 00:21:39;;;;;;;8.95;2.08;;;;;;;8.28;85.91;100393.45;1779964;79;20907;-60
2022/10/12 00:24:06;;;;;;;8.77;2.13;;;;;;;8.30;86.00;100392.52;1780214;80;21135;-60
2022/10/12 00:26:33;;;;;;;7.97;1.80;;;;;;;8.33;86.06;100393.34;1783906;79;20895;-59
2022/10/12 00:29:01;;;;;;;6.22;1.80;;;;;;;8.36;86.09;100393.25;1783397;79;21872;-60
2022/10/12 00:31:31;;;;;;;6.08;1.90;;;;;;;8.37;86.18;100402.75;1778605;79;20914;-60
2022/10/12 00:34:02;;;;;;;9.80;1.72;;;;;;;8.39;86.17;100403.15;1786657;80;20938;-61
2022/10/12 00:36:32;;;;;;;10.28;2.12;;;;;;;8.41;86.25;100409.63;1780822;80;21599;-60
2022/10/12 00:39:00;;;;;;;58.95;27.17;;;;;;;8.45;86.21;100408.64;1785816;80;20846;-60
2022/10/12 00:41:31;;;;;;;8.00;3.87;;;;;;;8.46;86.23;100406.46;1776910;80;21432;-60
2022/10/12 00:43:59;;;;;;;11.53;4.80;;;;;;;8.47;86.25;100406.85;1782696;79;20866;-61
2022/10/12 00:46:39;;;;;;;5.40;2.20;;;;;;;8.46;86.31;100401.25;1736393;81;21516;-61
2022/10/12 00:49:19;;;;;;;6.00;1.87;;;;;;;8.49;86.34;100402.47;1729767;82;21053;-60
2022/10/12 00:51:51;;;;;;;5.92;1.85;;;;;;;8.51;86.35;100405.86;1731733;81;20892;-60
2022/10/12 00:54:22;;;;;;;6.95;2.27;;;;;;;8.54;86.35;100399.26;1727219;82;20962;-61
2022/10/12 00:56:52;;;;;;;8.65;1.50;;;;;;;8.53;86.39;100409.28;1705412;83;21007;-61
2022/10/12 00:59:23;;;;;;;7.40;1.82;;;;;;;8.56;86.38;100408.34;1714547;82;20986;-60
2022/10/12 01:01:50;;;;;;;8.60;1.62;;;;;;;8.57;86.44;100405.71;1731795;82;21068;-60
2022/10/12 01:04:16;;;;;;;8.05;1.90;;;;;;;8.59;86.54;100401.30;1735604;82;20892;-60
2022/10/12 01:06:44;;;;;;;8.80;2.05;;;;;;;8.61;86.46;100407.31;1740872;80;20912;-60
2022/10/12 01:09:10;;;;;;;10.18;2.12;;;;;;;8.63;86.48;100412.50;1770062;80;20955;-60
2022/10/12 01:11:37;;;;;;;6.37;1.50;;;;;;;8.64;86.55;100416.80;1776298;80;21035;-60
2022/10/12 01:14:03;;;;;;;5.25;1.95;;;;;;;8.66;86.59;100415.86;1771681;80;21496;-60
2022/10/12 01:16:47;;;;;;;6.72;1.70;;;;;;;8.67;86.59;100414.95;1769405;78;21065;-60
2022/10/12 01:19:44;;;;;;;7.05;1.25;;;;;;;8.69;86.59;100412.31;1774807;80;20911;-60
2022/10/12 01:22:18;;;;;;;8.10;1.75;;;;;;;8.71;86.60;100401.38;1774568;78;20946;-60
2022/10/12 01:24:59;;;;;;;3.72;1.32;;;;;;;8.72;86.64;100402.66;1772562;80;21462;-60
2022/10/12 01:27:51;;;;;;;4.85;1.20;;;;;;;8.74;86.65;100403.48;1779478;80;20984;-61
2022/10/12 01:30:21;;;;;;;6.28;1.77;;;;;;;8.77;86.68;100400.39;1770384;79;21433;-60
2022/10/12 01:33:36;;;;;;;3.65;1.10;;;;;;;8.79;86.69;100397.27;1771234;80;21432;-60
2022/10/12 01:36:16;;;;;;;4.72;1.20;;;;;;;8.80;86.65;100398.99;1776006;80;20903;-60
2022/10/12 01:38:51;;;;;;;3.08;0.90;;;;;;;8.78;86.62;100400.78;1771145;80;20945;-60
2022/10/12 01:41:29;;;;;;;8.18;1.55;;;;;;;8.74;86.63;100398.27;1768067;78;20998;-61
2022/10/12 01:43:56;;;;;;;4.25;1.12;;;;;;;8.71;86.59;100399.66;1745476;81;21045;-60
2022/10/12 01:46:28;;;;;;;7.67;2.23;;;;;;;8.67;86.57;100398.48;1775784;80;20871;-60
2022/10/12 01:48:58;;;;;;;3.70;1.20;;;;;;;8.61;86.61;100403.87;1771740;80;21172;-60
2022/10/12 01:51:36;;;;;;;5.03;1.40;;;;;;;8.59;86.81;100403.89;1740493;81;20945;-60
2022/10/12 01:54:25;;;;;;;4.65;1.50;;;;;;;8.56;86.86;100402.69;1758552;81;21014;-60
2022/10/12 01:57:06;;;;;;;6.33;1.50;;;;;;;8.59;86.96;100398.69;1751062;81;21444;-60
2022/10/12 01:59:55;;;;;;;5.03;1.30;;;;;;;8.59;86.98;100401.30;1750729;81;20871;-60
2022/10/12 02:02:39;;;;;;;5.58;2.33;;;;;;;8.59;86.98;100401.30;1748305;81;20953;-61
2022/10/12 02:05:48;;;;;;;4.90;1.50;;;;;;;8.60;87.07;100406.92;1759688;79;20915;-60
2022/10/12 02:08:34;;;;;;;10.00;2.35;;;;;;;8.63;87.08;100405.53;1754138;79;22942;-60
2022/10/12 02:11:11;;;;;;;3.45;1.40;;;;;;;8.64;87.18;100408.53;1756775;80;20863;-61
2022/10/12 02:13:48;;;;;;;8.75;2.12;;;;;;;8.67;87.19;100398.03;1757120;81;20926;-60
2022/10/12 02:16:22;;;;;;;4.75;1.40;;;;;;;8.68;87.25;100401.05;1756635;80;20988;-60
2022/10/12 02:18:53;;;;;;;4.90;1.47;;;;;;;8.71;87.30;100397.48;1756795;80;21361;-60
2022/10/12 02:21:29;;;;;;;3.87;1.30;;;;;;;8.73;87.29;100403.05;1760528;80;21863;-60
2022/10/12 02:24:00;;;;;;;6.27;1.50;;;;;;;8.74;87.24;100403.48;1760544;80;20942;-61
2022/10/12 02:26:29;;;;;;;5.85;1.40;;;;;;;8.76;87.33;100401.27;1753818;80;21028;-60
2022/10/12 02:28:59;;;;;;;6.17;1.47;;;;;;;8.78;87.39;100402.93;1755859;80;20946;-60
2022/10/12 02:31:40;;;;;;;6.00;1.35;;;;;;;8.79;87.35;100410.28;1757456;80;21455;-60
2022/10/12 02:34:20;;;;;;;9.45;3.02;;;;;;;8.81;87.39;100413.70;1755951;81;21076;-61
2022/10/12 02:37:07;;;;;;;5.95;1.82;;;;;;;8.83;87.41;100418.43;1727090;81;20973;-60
2022/10/12 02:39:56;;;;;;;6.65;2.52;;;;;;;8.86;87.43;100422.24;1695342;84;20957;-60
2022/10/12 02:42:35;;;;;;;6.25;1.40;;;;;;;8.86;87.45;100419.64;1721469;81;20915;-60
2022/10/12 02:45:06;;;;;;;5.37;1.65;;;;;;;8.87;87.55;100423.94;1693727;83;21005;-61
2022/10/12 02:47:34;;;;;;;4.42;1.50;;;;;;;8.90;87.56;100429.05;1724362;81;21499;-60
2022/10/12 02:50:03;;;;;;;6.72;2.08;;;;;;;8.91;87.59;100432.09;1727654;81;20950;-60
2022/10/12 02:52:32;;;;;;;2.83;1.15;;;;;;;8.90;87.63;100429.05;1726919;81;20986;-60
2022/10/12 02:54:58;;;;;;;3.62;1.42;;;;;;;8.90;87.65;100423.84;1690738;84;21584;-61
2022/10/12 02:57:25;;;;;;;2.62;1.22;;;;;;;8.91;87.61;100426.87;1726804;81;21017;-60
2022/10/12 02:59:52;;;;;;;4.22;1.60;;;;;;;8.88;87.62;100415.25;1694588;83;21774;-61
2022/10/12 03:02:19;;;;;;;3.83;1.40;;;;;;;8.86;87.60;100411.83;1725580;82;20899;-60
2022/10/12 03:04:46;;;;;;;8.03;1.83;;;;;;;8.84;87.65;100409.71;1732083;81;21676;-60
2022/10/12 03:07:12;;;;;;;4.53;1.47;;;;;;;8.83;87.77;100414.52;1732331;81;20949;-60
2022/10/12 03:09:39;;;;;;;7.17;2.20;;;;;;;8.82;87.79;100413.67;1705057;83;21050;-60
2022/10/12 03:12:06;;;;;;;7.43;1.73;;;;;;;8.81;87.80;100407.20;1709122;83;21113;-60
2022/10/12 03:14:34;;;;;;;4.55;1.55;;;;;;;8.81;87.89;100412.41;1801647;78;20922;-60
2022/10/12 03:17:00;;;;;;;6.78;1.92;;;;;;;8.82;87.90;100418.01;1762361;80;21578;-60
2022/10/12 03:19:27;;;;;;;7.57;2.07;;;;;;;8.82;87.91;100415.41;1746574;81;21449;-61
2022/10/12 03:21:54;;;;;;;3.55;1.55;;;;;;;8.81;87.90;100418.91;1742958;81;21113;-60
2022/10/12 03:24:21;;;;;;;5.57;1.70;;;;;;;8.81;87.97;100421.52;1780203;80;21068;-60
2022/10/12 03:26:47;;;;;;;4.85;1.95;;;;;;;8.80;87.98;100407.66;1740041;80;21586;-60
2022/10/12 03:29:14;;;;;;;4.72;1.67;;;;;;;8.81;88.00;100416.31;1746896;80;21410;-60
2022/10/12 03:31:40;;;;;;;6.33;1.80;;;;;;;8.82;88.00;100421.91;1745403;81;20886;-60
2022/10/12 03:34:07;;;;;;;7.97;4.05;;;;;;;8.80;88.00;100415.92;1739890;80;21416;-60
2022/10/12 03:36:34;;;;;;;5.40;1.77;;;;;;;8.80;88.08;100412.02;1775622;80;21118;-61
2022/10/12 03:39:01;;;;;;;9.23;2.47;;;;;;;8.80;88.06;100417.22;1774719;79;20978;-60
2022/10/12 03:41:28;;;;;;;6.95;2.67;;;;;;;8.78;88.07;100419.00;1775366;80;20970;-60
2022/10/12 03:43:55;;;;;;;4.85;2.72;;;;;;;8.77;88.12;100426.42;1774718;80;21380;-60
2022/10/12 03:46:22;;;;;;;5.75;1.82;;;;;;;8.74;88.11;100426.91;1774300;79;20942;-60
2022/10/12 03:48:48;;;;;;;5.35;1.52;;;;;;;8.72;88.04;100426.09;1779659;79;21695;-61
2022/10/12 03:51:15;;;;;;;9.40;1.82;;;;;;;8.69;88.00;100433.99;1775476;80;20856;-61
2022/10/12 03:53:42;;;;;;;9.80;2.08;;;;;;;8.62;88.06;100436.34;1774885;80;21555;-60
2022/10/12 03:56:08;;;;;;;3.10;1.50;;;;;;;8.56;88.03;100432.62;1782122;79;21009;-60
2022/10/12 03:58:36;;;;;;;6.35;1.80;;;;;;;8.51;88.13;100431.88;1775953;80;21360;-60
2022/10/12 04:01:02;;;;;;;5.42;1.42;;;;;;;8.43;88.07;100428.22;1779397;80;21210;-60
2022/10/12 04:03:29;;;;;;;5.80;1.92;;;;;;;8.38;88.16;100433.95;1777756;80;20856;-60
2022/10/12 04:05:57;;;;;;;8.63;1.70;;;;;;;8.32;88.16;100441.05;1777681;80;20886;-61
2022/10/12 04:08:26;;;;;;;3.67;1.47;;;;;;;8.25;88.17;100438.61;1775282;79;20922;-60
2022/10/12 04:10:53;;;;;;;7.17;1.75;;;;;;;8.19;88.27;100445.28;1774972;80;20929;-61
2022/10/12 04:13:20;;;;;;;8.68;1.92;;;;;;;8.14;88.19;100440.64;1758747;79;21058;-60
2022/10/12 04:15:47;;;;;;;5.28;1.75;;;;;;;8.09;88.23;100447.70;1754517;81;20937;-60
2022/10/12 04:18:14;;;;;;;9.53;2.42;;;;;;;8.04;88.30;100450.89;1749913;80;20954;-60
2022/10/12 04:20:41;;;;;;;6.67;1.90;;;;;;;7.99;88.29;100459.25;1756699;79;21560;-60
2022/10/12 04:23:07;;;;;;;5.60;1.87;;;;;;;7.92;88.37;100450.73;1761192;79;21109;-60
2022/10/12 04:25:34;;;;;;;5.75;1.90;;;;;;;7.88;88.43;100456.91;1759251;79;21044;-60
2022/10/12 04:28:01;;;;;;;7.33;1.90;;;;;;;7.85;88.49;100460.44;1760349;80;20926;-60
2022/10/12 04:30:28;;;;;;;7.00;2.08;;;;;;;7.80;88.58;100464.88;1756334;79;20973;-60
2022/10/12 04:32:55;;;;;;;5.33;1.95;;;;;;;7.78;88.60;100471.86;1759089;81;20941;-60
2022/10/12 04:35:21;;;;;;;4.78;1.65;;;;;;;7.76;88.61;100468.47;1755279;79;21080;-60
2022/10/12 04:37:48;;;;;;;4.93;2.10;;;;;;;7.74;88.64;100470.23;1758937;81;21046;-60
2022/10/12 04:40:15;;;;;;;6.97;2.08;;;;;;;7.72;88.70;100472.01;1759967;81;20897;-60
2022/10/12 04:42:41;;;;;;;8.83;2.70;;;;;;;7.69;88.66;100472.09;1751886;79;21058;-60
2022/10/12 04:45:09;;;;;;;6.43;2.10;;;;;;;7.66;88.78;100477.36;1759058;81;20892;-60
2022/10/12 04:47:35;;;;;;;6.42;2.40;;;;;;;7.64;88.79;100488.22;1762568;79;21591;-60
2022/10/12 04:50:02;;;;;;;7.20;1.90;;;;;;;7.63;88.81;100485.23;1755790;81;21874;-61
2022/10/12 04:52:29;;;;;;;4.12;1.55;;;;;;;7.62;88.85;100483.53;1755994;81;21444;-60
2022/10/12 04:54:56;;;;;;;6.73;2.53;;;;;;;7.58;88.81;100484.47;1752952;81;21643;-60
2022/10/12 04:57:22;;;;;;;6.93;2.17;;;;;;;7.55;88.83;100487.99;1754383;81;20961;-61
2022/10/12 04:59:49;;;;;;;7.53;2.60;;;;;;;7.54;88.97;100485.45;1751553;81;20887;-60
2022/10/12 05:02:16;;;;;;;10.32;2.30;;;;;;;7.53;89.01;100487.61;1754986;81;21219;-61
2022/10/12 05:04:43;;;;;;;10.38;2.60;;;;;;;7.51;88.88;100488.97;1764644;81;26867;-61
2022/10/12 05:07:10;;;;;;;6.10;2.20;;;;;;;7.48;88.85;100493.35;1761597;81;20985;-61
2022/10/12 05:09:37;;;;;;;14.23;2.17;;;;;;;7.45;88.89;100499.50;1764166;80;20950;-61
2022/10/12 05:12:03;;;;;;;11.10;2.27;;;;;;;7.42;89.01;100492.20;1760067;81;20979;-61
2022/10/12 05:14:31;;;;;;;6.63;2.23;;;;;;;7.40;89.12;100498.30;1731861;82;21046;-61
2022/10/12 05:16:57;;;;;;;6.70;2.77;;;;;;;7.40;89.12;100504.79;1761463;81;27290;-61
2022/10/12 05:19:24;;;;;;;5.17;2.12;;;;;;;7.39;89.19;100505.69;1765744;80;20874;-61
2022/10/12 05:21:52;;;;;;;9.55;2.20;;;;;;;7.39;89.15;100497.89;1766634;80;20944;-61
2022/10/12 05:24:19;;;;;;;9.23;2.22;;;;;;;7.36;89.19;100495.33;1765065;79;20930;-61
2022/10/12 05:26:45;;;;;;;7.15;2.45;;;;;;;7.38;89.17;100496.16;1761282;80;21048;-61
2022/10/12 05:29:12;;;;;;;8.33;2.93;;;;;;;7.42;89.25;100498.69;1764628;80;20941;-61
2022/10/12 05:31:39;;;;;;;8.85;2.52;;;;;;;7.46;89.37;100500.35;1760886;79;20909;-61
2022/10/12 05:34:06;;;;;;;8.43;2.65;;;;;;;7.55;89.43;100497.54;1759607;80;21425;-60
2022/10/12 05:36:33;;;;;;;14.47;3.12;;;;;;;7.63;89.45;100511.22;1760010;80;20911;-60
2022/10/12 05:39:00;;;;;;;11.23;2.30;;;;;;;7.75;89.60;100516.13;1757887;81;21050;-60
2022/10/12 05:41:26;;;;;;;5.65;1.77;;;;;;;7.90;89.82;100511.45;1746532;81;21435;-61
2022/10/12 05:43:53;;;;;;;8.00;2.17;;;;;;;8.04;89.96;100518.52;1764816;80;20968;-62
2022/10/12 05:46:20;;;;;;;7.60;2.17;;;;;;;8.36;90.31;100499.94;1736267;81;21651;-61
2022/10/12 05:48:46;;;;;;;4.92;2.12;;;;;;;8.36;90.31;100499.94;1764087;81;21474;-61
2022/10/12 05:51:13;;;;;;;9.87;2.20;;;;;;;8.59;90.07;100515.83;1768563;80;21025;-60
2022/10/12 05:53:40;;;;;;;7.08;1.85;;;;;;;8.69;90.08;100516.00;1769257;80;21407;-61
2022/10/12 05:56:07;;;;;;;8.97;2.10;;;;;;;8.81;90.10;100528.28;1763409;80;21014;-61
2022/10/12 05:58:34;;;;;;;5.35;1.82;;;;;;;8.89;90.10;100515.91;1732372;82;28700;-60
2022/10/12 06:01:10;;;;;;;8.10;2.25;;;;;;;8.95;90.00;100510.52;1765514;80;20906;-61
2022/10/12 06:03:37;;;;;;;11.95;2.47;;;;;;;9.01;90.04;100515.55;1728539;82;21464;-61
2022/10/12 06:06:06;;;;;;;6.53;2.40;;;;;;;9.10;90.03;100511.83;1767161;80;38509;-61
2022/10/12 06:08:34;;;;;;;7.72;2.40;;;;;;;9.20;89.87;100511.98;1730545;81;21540;-61
2022/10/12 06:11:01;;;;;;;5.80;2.40;;;;;;;9.19;89.90;100520.25;1758469;80;20884;-62
2022/10/12 06:13:28;;;;;;;6.17;2.25;;;;;;;9.31;90.22;100514.28;1758608;81;20922;-61
2022/10/12 06:15:55;;;;;;;4.93;2.40;;;;;;;9.47;90.08;100514.23;1756759;81;21274;-61
2022/10/12 06:18:22;;;;;;;6.60;2.58;;;;;;;9.56;90.06;100508.73;1761105;81;20942;-60
2022/10/12 06:20:51;;;;;;;3.55;1.87;;;;;;;9.66;90.07;100511.05;1755509;81;20894;-61
2022/10/12 06:23:19;;;;;;;4.72;2.12;;;;;;;9.75;89.85;100516.85;1721680;81;20949;-61
2022/10/12 06:25:49;;;;;;;5.58;1.90;;;;;;;9.84;90.00;100513.95;1757572;81;20914;-61
2022/10/12 06:28:21;;;;;;;6.03;2.70;;;;;;;9.94;90.06;100517.13;1758765;81;21072;-61
2022/10/12 06:30:56;;;;;;;6.40;2.50;;;;;;;9.97;89.87;100514.42;1753986;81;20938;-60
2022/10/12 06:33:23;;;;;;;5.35;2.33;;;;;;;10.03;90.03;100510.77;1755222;81;21460;-61
2022/10/12 06:35:50;;;;;;;3.77;1.85;;;;;;;10.03;89.76;100522.05;1753254;81;20891;-60
2022/10/12 06:38:17;;;;;;;5.37;2.30;;;;;;;10.03;89.85;100524.66;1747142;81;21425;-60
2022/10/12 06:40:44;;;;;;;5.13;1.90;;;;;;;10.06;89.98;100529.77;1760511;81;21473;-61
2022/10/12 06:43:10;;;;;;;4.03;2.17;;;;;;;10.13;90.17;100533.48;1757429;81;21324;-61
2022/10/12 06:45:39;;;;;;;4.83;2.25;;;;;;;10.20;90.29;100537.16;1752390;81;20953;-61
2022/10/12 06:48:08;;;;;;;6.67;2.08;;;;;;;10.28;90.28;100539.55;1761764;81;20899;-61
2022/10/12 06:50:35;;;;;;;4.92;2.40;;;;;;;10.35;90.28;100535.82;1752529;81;20887;-61
2022/10/12 06:53:01;;;;;;;6.50;2.27;;;;;;;10.41;90.35;100539.98;1761521;81;21095;-61
2022/10/12 06:55:28;;;;;;;7.40;2.52;;;;;;;10.43;90.19;100539.03;1752353;81;20919;-61
2022/10/12 06:57:55;;;;;;;5.35;1.90;;;;;;;10.45;90.01;100543.75;1755457;81;21481;-62
2022/10/12 07:00:22;;;;;;;6.03;1.82;;;;;;;10.46;90.01;100538.92;1755581;81;20934;-61
2022/10/12 07:02:50;;;;;;;5.60;2.30;;;;;;;10.43;89.90;100549.47;1754018;81;20914;-61
2022/10/12 07:05:19;;;;;;;5.45;2.00;;;;;;;10.45;90.11;100548.98;1754975;81;22363;-61
2022/10/12 07:07:46;;;;;;;7.70;2.52;;;;;;;10.45;90.10;100550.28;1756474;81;20962;-61
2022/10/12 07:10:13;;;;;;;10.75;3.05;;;;;;;10.51;90.18;100551.38;1765175;80;20993;-61
2022/10/12 07:12:39;;;;;;;6.37;2.40;;;;;;;10.56;90.14;100556.88;1770618;80;20954;-60
2022/10/12 07:15:07;;;;;;;7.08;1.87;;;;;;;10.64;90.37;100556.17;1770694;80;20915;-61
2022/10/12 07:17:34;;;;;;;6.90;1.90;;;;;;;10.77;90.29;100561.38;1768953;80;21248;-61
2022/10/12 07:20:01;;;;;;;7.57;2.20;;;;;;;10.87;90.20;100565.39;1766099;80;20929;-61
2022/10/12 07:22:27;;;;;;;5.35;2.02;;;;;;;11.00;90.42;100554.48;1766965;80;20887;-61
2022/10/12 07:24:54;;;;;;;8.80;2.55;;;;;;;11.17;90.19;100555.61;1766796;80;20936;-62
2022/10/12 07:27:21;;;;;;;5.67;2.50;;;;;;;11.36;90.23;100562.30;1771525;80;20965;-61
2022/10/12 07:29:47;;;;;;;10.00;3.27;;;;;;;11.37;89.74;100562.72;1768077;80;21054;-62
2022/10/12 07:32:14;;;;;;;8.05;3.17;;;;;;;11.53;90.29;100562.13;1764301;80;20903;-62
2022/10/12 07:34:43;;;;;;;6.65;2.67;;;;;;;11.72;90.08;100560.52;1766102;80;21012;-61
2022/10/12 07:37:10;;;;;;;9.03;2.95;;;;;;;11.90;90.15;100559.43;1769425;80;20910;-61
2022/10/12 07:39:36;;;;;;;9.28;3.17;;;;;;;12.09;90.06;100569.56;1765089;80;20915;-61
2022/10/12 07:42:03;;;;;;;6.37;2.30;;;;;;;12.23;89.70;100562.00;1771896;80;21113;-61
2022/10/12 07:44:30;;;;;;;8.18;2.60;;;;;;;12.33;89.64;100561.65;1770099;80;20934;-61
2022/10/12 07:46:57;;;;;;;9.25;2.50;;;;;;;12.53;89.96;100557.73;1764810;81;20946;-61
2022/10/12 07:49:24;;;;;;;6.33;2.47;;;;;;;12.67;89.57;100554.07;1769814;80;20965;-61
2022/10/12 07:51:50;;;;;;;6.53;2.65;;;;;;;12.81;89.63;100561.81;1769136;80;20903;-61
2022/10/12 07:54:17;;;;;;;6.63;2.50;;;;;;;12.97;89.44;100566.78;1767859;80;21046;-61
2022/10/12 07:56:45;;;;;;;5.47;2.60;;;;;;;13.11;89.48;100564.40;1769376;80;20945;-61
2022/10/12 07:59:12;;;;;;;4.87;2.45;;;;;;;13.17;89.09;100564.59;1768601;80;21137;-61
2022/10/12 08:01:38;;;;;;;8.60;3.00;;;;;;;13.19;88.87;100565.34;1767575;80;21444;-62
2022/10/12 08:04:05;;;;;;;6.93;2.43;;;;;;;13.38;89.36;100561.48;1769050;81;21239;-62
2022/10/12 08:06:33;;;;;;;12.80;2.67;;;;;;;13.59;89.12;100563.13;1767897;80;21048;-61
2022/10/12 08:09:01;;;;;;;5.58;2.20;;;;;;;13.65;88.97;100573.33;1767598;79;21005;-62
2022/10/12 08:11:28;;;;;;;3.83;1.95;;;;;;;13.80;88.98;100560.41;1751723;81;20938;-62
2022/10/12 08:13:55;;;;;;;8.00;2.12;;;;;;;13.92;88.63;100563.78;1757903;81;21453;-61
2022/10/12 08:16:22;;;;;;;7.50;2.05;;;;;;;13.93;88.64;100569.41;1753933;81;20890;-61
2022/10/12 08:18:49;;;;;;;7.42;1.77;;;;;;;14.09;89.03;100557.25;1758318;81;21087;-61
2022/10/12 08:21:16;;;;;;;8.53;2.35;;;;;;;14.22;88.29;100559.27;1748926;81;20961;-61
2022/10/12 08:23:44;;;;;;;8.38;2.70;;;;;;;14.26;88.43;100558.21;1757583;81;21517;-62
2022/10/12 08:26:11;;;;;;;5.78;1.82;;;;;;;14.22;88.46;100548.77;1753272;81;20938;-61
2022/10/12 08:28:38;;;;;;;5.65;2.10;;;;;;;14.32;88.05;100560.53;1755379;81;20934;-62
2022/10/12 08:31:08;;;;;;;5.50;2.05;;;;;;;14.45;88.18;100565.56;1757623;81;21033;-61
2022/10/12 08:33:34;;;;;;;5.08;2.22;;;;;;;14.48;87.97;100553.59;1750541;81;20914;-61
2022/10/12 08:36:06;;;;;;;7.03;2.60;;;;;;;14.55;87.76;100560.25;1753119;81;22049;-61
2022/10/12 08:38:37;;;;;;;8.55;2.25;;;;;;;14.55;87.56;100552.36;1752998;81;21018;-61
2022/10/12 08:41:41;;;;;;;7.03;1.85;;;;;;;14.38;85.81;100549.70;1750456;81;20994;-61
2022/10/12 08:44:49;;;;;;;5.25;2.15;;;;;;;14.10;86.56;100558.94;1750752;81;21136;-61
2022/10/12 08:47:21;;;;;;;6.90;1.45;;;;;;;14.15;87.34;100561.36;1696685;83;20926;-62
2022/10/12 08:49:51;;;;;;;5.47;1.50;;;;;;;14.20;86.73;100563.73;1691183;83;20945;-61
2022/10/12 08:52:32;;;;;;;5.30;1.60;;;;;;;14.12;86.38;100565.91;1700106;83;20955;-62
2022/10/12 08:55:07;;;;;;;4.15;1.47;;;;;;;13.76;84.10;100565.42;1698429;82;20934;-61
2022/10/12 08:57:34;;;;;;;8.60;1.70;;;;;;;13.57;85.52;100568.89;1699207;83;21539;-61
2022/10/12 09:00:00;;;;;;;;;;;;;;;13.73;86.20;100570.83;1698283;83;20989;-61
2022/10/12 09:02:45;;;;;;;7.10;1.57;;;;;;;13.76;84.98;100570.67;1689509;83;20508;-62
2022/10/12 09:05:20;;;;;;;4.12;1.00;;;;;;;13.84;85.58;100567.23;1686590;83;20903;-62
2022/10/12 09:07:54;;;;;;;3.77;1.30;;;;;;;13.85;84.82;100566.30;1695275;83;20985;-61
2022/10/12 09:10:40;;;;;;;4.28;1.45;;;;;;;13.85;84.92;100564.98;1701604;83;21870;-62
2022/10/12 09:13:38;;;;;;;4.40;1.35;;;;;;;13.81;83.15;100568.69;1729486;80;21022;-61
2022/10/12 09:16:24;;;;;;;3.15;1.37;;;;;;;13.65;83.89;100570.70;1705201;82;20946;-61
2022/10/12 09:18:58;;;;;;;5.58;1.20;;;;;;;13.58;82.36;100571.05;1696844;82;20946;-61
2022/10/12 09:21:28;;;;;;;5.42;1.20;;;;;;;13.73;84.26;100561.64;1688629;82;20938;-62
2022/10/12 09:23:56;;;;;;;4.30;1.30;;;;;;;13.88;82.01;100566.15;1744004;80;21086;-61
2022/10/12 09:26:36;;;;;;;3.67;1.27;;;;;;;13.85;83.39;100567.14;1767506;79;20898;-61
2022/10/12 09:29:29;;;;;;;5.75;1.62;;;;;;;14.07;84.20;100561.72;1772270;80;20957;-65
2022/10/12 09:32:25;;;;;;;4.60;1.15;;;;;;;14.41;84.39;100558.75;1774142;80;20907;-64
2022/10/12 09:34:52;;;;;;;4.95;1.47;;;;;;;14.48;83.00;100569.36;1773205;79;20958;-66
2022/10/12 09:37:23;;;;;;;4.17;1.45;;;;;;;14.37;82.81;100571.66;1776432;80;21896;-64
2022/10/12 09:39:51;;;;;;;7.17;3.27;;;;;;;14.27;81.88;100574.34;1771793;79;20927;-65
2022/10/12 09:42:18;;;;;;;6.45;2.67;;;;;;;14.13;82.39;100574.17;1771165;79;20975;-64
2022/10/12 09:45:18;;;;;;;10.05;4.60;;;;;;;14.06;82.25;100574.47;1776038;80;20934;-63
2022/10/12 09:48:16;;;;;;;9.85;3.17;;;;;;;14.00;82.33;100576.09;1775358;80;21065;-63
2022/10/12 09:50:58;;;;;;;7.22;2.98;;;;;;;13.89;82.04;100573.09;1769936;80;22402;-63
2022/10/12 09:53:35;;;;;;;5.08;1.90;;;;;;;13.90;82.03;100570.88;1772409;79;20946;-62
2022/10/12 09:56:10;;;;;;;5.47;1.15;;;;;;;13.87;81.71;100567.09;1776405;79;21444;-62
2022/10/12 09:58:54;;;;;;;3.45;1.05;;;;;;;13.75;81.35;100575.08;1774587;79;22111;-62
2022/10/12 10:01:25;;;;;;;4.17;1.10;;;;;;;13.66;81.28;100585.52;1772095;79;21432;-62
2022/10/12 10:04:13;;;;;;;3.80;1.25;;;;;;;13.64;81.45;100587.38;1740825;80;21001;-61
2022/10/12 10:06:44;;;;;;;5.92;1.50;;;;;;;13.53;81.14;100587.49;1774641;79;20879;-61
2022/10/12 10:09:29;;;;;;;5.92;1.75;;;;;;;13.52;81.30;100577.44;1770533;80;20875;-61
2022/10/12 10:12:00;;;;;;;5.00;1.30;;;;;;;13.67;81.55;100575.90;1736234;80;20922;-61
2022/10/12 10:14:32;;;;;;;6.60;2.45;;;;;;;13.92;81.44;100563.78;1738331;80;20882;-61
2022/10/12 10:17:00;;;;;;;5.53;1.30;;;;;;;14.09;81.55;100569.07;1770984;79;21161;-61
2022/10/12 10:19:26;;;;;;;5.90;1.27;;;;;;;14.28;80.45;100567.72;1792372;78;20909;-61
2022/10/12 10:21:55;;;;;;;5.03;1.55;;;;;;;14.41;80.82;100565.31;1789018;78;21039;-61
2022/10/12 10:24:31;;;;;;;3.70;1.30;;;;;;;14.62;80.97;100562.56;1764765;78;20873;-61
2022/10/12 10:27:09;;;;;;;5.20;1.90;;;;;;;14.80;80.41;100565.58;1789414;78;20977;-61
2022/10/12 10:29:41;;;;;;;5.55;1.20;;;;;;;14.86;80.39;100562.63;1782691;78;21457;-62
2022/10/12 10:32:28;;;;;;;5.00;1.10;;;;;;;15.15;80.45;100556.30;1790313;78;20936;-62
2022/10/12 10:35:12;;;;;;;3.52;1.05;;;;;;;15.45;80.43;100559.93;1748218;80;21545;-62
2022/10/12 10:37:50;;;;;;;4.37;0.70;;;;;;;15.75;79.36;100563.17;1741517;80;20902;-63
2022/10/12 10:40:27;;;;;;;2.17;0.78;;;;;;;15.38;72.84;100566.47;1735614;80;20953;-62
2022/10/12 10:43:10;;;;;;;3.33;1.00;;;;;;;15.14;75.83;100557.25;1728315;81;21066;-61
2022/10/12 10:45:42;;;;;;;4.03;1.17;;;;;;;15.02;75.64;100567.11;1727176;81;20954;-61
2022/10/12 10:48:15;;;;;;;3.75;0.72;;;;;;;15.05;77.45;100564.31;1759692;80;20922;-61
2022/10/12 10:51:00;;;;;;;5.47;1.05;;;;;;;15.24;77.72;100565.05;1742561;80;20941;-62
2022/10/12 10:53:32;;;;;;;5.37;1.10;;;;;;;15.41;77.42;100565.46;1726097;81;20950;-61
2022/10/12 10:56:11;;;;;;;4.92;1.20;;;;;;;15.12;76.62;100564.36;1724354;81;21059;-62
2022/10/12 10:58:55;;;;;;;3.52;0.98;;;;;;;14.86;76.41;100571.83;1744858;80;20932;-62
2022/10/12 11:01:39;;;;;;;6.22;1.12;;;;;;;14.58;76.66;100568.91;1761337;80;20980;-62
2022/10/12 11:04:17;;;;;;;3.87;1.40;;;;;;;14.40;76.69;100574.14;1746402;80;21028;-61
2022/10/12 11:06:49;;;;;;;4.75;1.22;;;;;;;14.20;76.65;100573.81;1752662;80;20920;-62
2022/10/12 11:09:20;;;;;;;6.03;2.45;;;;;;;14.15;76.81;100578.90;1738125;80;21451;-62
2022/10/12 11:11:59;;;;;;;4.80;1.75;;;;;;;14.13;76.70;100580.73;1761212;80;20939;-61
2022/10/12 11:14:37;;;;;;;4.58;1.42;;;;;;;14.05;76.22;100584.56;1744028;80;20964;-62
2022/10/12 11:17:32;;;;;;;4.37;1.37;;;;;;;13.97;76.58;100583.23;1746518;80;20918;-62
2022/10/12 11:20:19;;;;;;;7.00;1.55;;;;;;;14.01;76.65;100580.40;1739883;80;20889;-62
2022/10/12 11:22:51;;;;;;;;;;;;;;;14.26;77.18;100571.34;1750323;81;21143;-62
2022/10/12 11:25:29;;;;;;;4.12;1.12;;;;;;;14.49;77.08;100575.45;1746466;81;20118;-61
2022/10/12 11:27:56;;;;;;;7.28;1.45;;;;;;;14.73;77.05;100578.64;1716735;81;20947;-61
2022/10/12 11:30:28;;;;;;;7.17;1.57;;;;;;;14.96;77.12;100580.95;1732763;81;20976;-62
2022/10/12 11:33:05;;;;;;;5.25;1.30;;;;;;;15.19;76.88;100576.27;1733363;82;21022;-62
2022/10/12 11:35:36;;;;;;;5.30;1.12;;;;;;;15.25;76.26;100578.58;1732503;82;21048;-61
2022/10/12 11:38:19;;;;;;;4.10;1.00;;;;;;;15.21;76.33;100574.42;1781544;78;20905;-61
2022/10/12 11:41:09;;;;;;;4.08;1.10;;;;;;;15.16;76.13;100572.49;1745636;81;20960;-61
2022/10/12 11:43:58;;;;;;;3.22;1.12;;;;;;;15.00;75.90;100574.59;1738393;81;20969;-61
2022/10/12 11:46:36;;;;;;;3.72;1.37;;;;;;;14.88;75.47;100571.30;1734111;81;20974;-62
2022/10/12 11:49:17;;;;;;;3.55;1.17;;;;;;;14.63;75.51;100572.17;1748624;81;21053;-62
2022/10/12 11:51:47;;;;;;;2.60;0.85;;;;;;;14.44;75.69;100570.42;1700980;82;20931;-63